Time;durP1;ratioP1;P1;durP2;ratioP2;P2;SDS_P1;SDS_P2;PMS_P1;PMS_P2;Temp;Humidity;BMP_temperature;BMP_pressure;BME280_temperature;BME280_humidity;BME280_pressure;Samples;Min_cycle;Max_cycle;Signal;HPM_P1;HPM_P2
2022/08/15 00:02:23;;;;;;;5.90;3.30;;;20.80;88.70;;;;;;5055229;28;20234;-80
2022/08/15 00:04:50;;;;;;;6.43;3.63;;;20.80;89.20;;;;;;5056694;28;20254;-80
2022/08/15 00:07:18;;;;;;;4.90;3.80;;;20.70;89.40;;;;;;5063541;28;20234;-81
2022/08/15 00:09:44;;;;;;;10.27;3.72;;;20.70;90.40;;;;;;5063278;28;20245;-81
2022/08/15 00:12:14;;;;;;;4.05;3.63;;;20.70;90.10;;;;;;5042535;28;20300;-81
2022/08/15 00:14:40;;;;;;;7.43;3.53;;;20.60;90.20;;;;;;5051230;28;20314;-81
2022/08/15 00:17:10;;;;;;;6.43;3.47;;;20.60;90.40;;;;;;5055775;28;20219;-81
2022/08/15 00:19:40;;;;;;;4.65;3.63;;;20.60;90.70;;;;;;5060216;28;20223;-81
2022/08/15 00:22:09;;;;;;;4.93;3.30;;;20.50;90.80;;;;;;5058047;28;20223;-80
2022/08/15 00:24:38;;;;;;;9.07;4.05;;;20.50;91.00;;;;;;5059028;28;20219;-81
2022/08/15 00:27:08;;;;;;;6.18;3.58;;;20.40;91.30;;;;;;5052106;28;20224;-80
2022/08/15 00:29:36;;;;;;;4.85;3.10;;;20.40;91.30;;;;;;5043044;28;20216;-80
2022/08/15 00:32:04;;;;;;;5.95;3.85;;;20.40;91.30;;;;;;5058772;28;20254;-80
2022/08/15 00:34:31;;;;;;;3.90;3.47;;;20.30;91.60;;;;;;5058404;28;20241;-81
2022/08/15 00:36:58;;;;;;;5.40;3.92;;;20.30;91.70;;;;;;5042377;28;20223;-80
2022/08/15 00:39:27;;;;;;;7.28;4.00;;;20.20;91.90;;;;;;5055711;28;20323;-80
2022/08/15 00:41:58;;;;;;;4.28;3.47;;;20.20;92.20;;;;;;5042153;28;20223;-80
2022/08/15 00:44:29;;;;;;;4.32;3.47;;;20.10;92.50;;;;;;5053563;28;20696;-80
2022/08/15 00:47:02;;;;;;;8.43;3.83;;;20.10;92.50;;;;;;5042534;28;20219;-80
2022/08/15 00:49:31;;;;;;;7.15;3.60;;;20.00;93.00;;;;;;5042960;28;20774;-81
2022/08/15 00:52:00;;;;;;;6.13;4.28;;;20.00;93.00;;;;;;5041611;28;20735;-80
2022/08/15 00:54:31;;;;;;;5.38;3.70;;;19.90;93.30;;;;;;5054946;28;20227;-81
2022/08/15 00:57:03;;;;;;;5.88;3.75;;;19.90;93.30;;;;;;5033430;28;21011;-81
2022/08/15 00:59:34;;;;;;;8.20;4.22;;;19.80;93.60;;;;;;5055455;28;20222;-79
2022/08/15 01:02:05;;;;;;;6.45;4.10;;;19.70;93.70;;;;;;5040769;28;20314;-79
2022/08/15 01:04:33;;;;;;;6.63;3.92;;;19.70;93.70;;;;;;5038715;28;20246;-79
2022/08/15 01:07:00;;;;;;;7.82;4.05;;;19.60;93.80;;;;;;5062745;28;20361;-79
2022/08/15 01:09:29;;;;;;;7.55;4.10;;;19.60;94.00;;;;;;5059998;28;20215;-79
2022/08/15 01:11:59;;;;;;;3.90;3.50;;;19.60;94.40;;;;;;5043660;28;20602;-80
2022/08/15 01:14:29;;;;;;;12.80;4.45;;;19.50;94.60;;;;;;5037861;28;20231;-81
2022/08/15 01:16:59;;;;;;;5.82;3.60;;;19.50;94.80;;;;;;5057158;28;20715;-81
2022/08/15 01:19:32;;;;;;;4.85;3.67;;;19.40;94.70;;;;;;5036597;28;20231;-81
2022/08/15 01:22:11;;;;;;;5.35;3.80;;;19.40;94.90;;;;;;5040473;28;20217;-81
2022/08/15 01:24:54;;;;;;;5.28;3.70;;;19.30;95.20;;;;;;5041505;28;20306;-81
2022/08/15 01:27:24;;;;;;;6.30;3.90;;;19.30;95.50;;;;;;5044534;28;20321;-81
2022/08/15 01:29:52;;;;;;;5.07;3.85;;;19.30;95.40;;;;;;5047455;28;20276;-80
2022/08/15 01:32:21;;;;;;;4.35;3.85;;;19.20;95.50;;;;;;5045728;28;20215;-80
2022/08/15 01:34:49;;;;;;;5.88;4.13;;;19.20;95.90;;;;;;5044774;28;20226;-80
2022/08/15 01:37:17;;;;;;;4.22;3.38;;;19.10;95.90;;;;;;5041631;28;20223;-79
2022/08/15 01:39:52;;;;;;;8.45;3.80;;;19.10;96.20;;;;;;5053640;28;20934;-79
2022/08/15 01:42:23;;;;;;;4.07;3.40;;;19.00;96.50;;;;;;5045042;28;20247;-80
2022/08/15 01:44:55;;;;;;;6.15;4.30;;;19.00;96.70;;;;;;5063032;28;20269;-80
2022/08/15 01:47:26;;;;;;;6.88;3.33;;;19.00;96.80;;;;;;5041635;28;20231;-79
2022/08/15 01:50:01;;;;;;;4.13;3.63;;;18.90;96.80;;;;;;5046768;28;20223;-80
2022/08/15 01:52:35;;;;;;;6.68;3.63;;;18.90;97.00;;;;;;5042601;28;20226;-79
2022/08/15 01:55:07;;;;;;;4.32;3.33;;;18.90;97.00;;;;;;5056710;28;20204;-79
2022/08/15 01:57:35;;;;;;;6.53;3.80;;;18.80;97.30;;;;;;5046810;28;20242;-79
2022/08/15 02:00:05;;;;;;;4.65;3.60;;;18.80;97.20;;;;;;5043343;28;20250;-80
2022/08/15 02:02:40;;;;;;;6.25;3.65;;;18.70;97.20;;;;;;5061762;28;20239;-80
2022/08/15 02:05:07;;;;;;;8.15;4.18;;;18.70;97.30;;;;;;5054906;28;20220;-80
2022/08/15 02:07:34;;;;;;;7.82;3.90;;;18.70;97.40;;;;;;5045209;28;20898;-80
2022/08/15 02:10:02;;;;;;;6.05;3.90;;;18.60;97.70;;;;;;5046001;28;20748;-80
2022/08/15 02:12:37;;;;;;;5.45;3.67;;;18.60;97.90;;;;;;5062192;28;20215;-80
2022/08/15 02:15:15;;;;;;;5.43;3.50;;;18.50;98.00;;;;;;5060218;28;20220;-80
2022/08/15 02:17:42;;;;;;;6.03;3.65;;;18.50;98.20;;;;;;5040025;28;20226;-80
2022/08/15 02:20:11;;;;;;;4.68;3.80;;;18.40;98.10;;;;;;5060181;28;20246;-80
2022/08/15 02:22:38;;;;;;;5.28;3.70;;;18.40;98.30;;;;;;5044355;28;20227;-80
2022/08/15 02:25:09;;;;;;;6.70;3.55;;;18.40;98.40;;;;;;5063107;28;20215;-80
2022/08/15 02:27:39;;;;;;;3.92;3.13;;;18.30;98.50;;;;;;5047076;28;20218;-80
2022/08/15 02:30:12;;;;;;;6.07;3.65;;;18.30;98.70;;;;;;5045526;28;20231;-80
2022/08/15 02:32:40;;;;;;;5.35;3.75;;;18.20;98.90;;;;;;5059109;28;20229;-80
2022/08/15 02:35:11;;;;;;;4.50;3.80;;;18.20;98.90;;;;;;5055693;28;20224;-80
2022/08/15 02:37:41;;;;;;;5.13;3.80;;;18.20;99.10;;;;;;5044645;28;20227;-80
2022/08/15 02:40:11;;;;;;;4.60;3.70;;;18.20;99.30;;;;;;5045996;28;20339;-81
2022/08/15 02:42:39;;;;;;;4.15;3.50;;;18.10;99.30;;;;;;5058091;28;20598;-80
2022/08/15 02:45:09;;;;;;;5.55;3.80;;;18.10;99.40;;;;;;5043201;28;20521;-80
2022/08/15 02:47:36;;;;;;;6.78;3.90;;;18.10;99.50;;;;;;5056162;28;20311;-80
2022/08/15 02:50:05;;;;;;;8.02;3.47;;;18.00;99.60;;;;;;5043484;28;20215;-80
2022/08/15 02:52:34;;;;;;;5.85;3.58;;;18.10;99.70;;;;;;5043495;28;20273;-81
2022/08/15 02:55:01;;;;;;;6.75;3.83;;;18.00;99.70;;;;;;5042705;28;20222;-81
2022/08/15 02:57:31;;;;;;;4.70;3.60;;;18.00;99.90;;;;;;5045417;28;20227;-81
2022/08/15 03:00:01;;;;;;;7.20;3.80;;;18.00;99.90;;;;;;5064092;28;20773;-80
2022/08/15 03:02:47;;;;;;;5.75;3.88;;;18.00;99.90;;;;;;5042107;28;20223;-80
2022/08/15 03:05:16;;;;;;;5.75;4.20;;;18.00;99.90;;;;;;5055997;28;20276;-80
2022/08/15 03:07:44;;;;;;;4.40;3.70;;;18.00;99.90;;;;;;5044665;28;20440;-80
2022/08/15 03:10:11;;;;;;;6.45;4.30;;;17.90;99.90;;;;;;5041271;28;20693;-76
2022/08/15 03:12:52;;;;;;;5.72;3.67;;;17.90;99.90;;;;;;5041864;28;20281;-76
2022/08/15 03:15:21;;;;;;;4.35;3.85;;;17.90;99.90;;;;;;5041175;28;20734;-75
2022/08/15 03:17:49;;;;;;;11.93;3.72;;;17.90;99.90;;;;;;5038979;28;20215;-75
2022/08/15 03:20:16;;;;;;;6.10;3.60;;;17.90;99.90;;;;;;5058748;28;20222;-75
2022/08/15 03:22:46;;;;;;;7.80;3.72;;;17.90;99.90;;;;;;5042433;28;20216;-75
2022/08/15 03:25:15;;;;;;;5.90;3.63;;;17.90;99.90;;;;;;5057464;28;20238;-75
2022/08/15 03:27:43;;;;;;;4.35;3.83;;;17.80;99.90;;;;;;5063012;28;20237;-75
2022/08/15 03:30:14;;;;;;;4.85;4.07;;;17.80;99.90;;;;;;5042157;28;20215;-75
2022/08/15 03:32:46;;;;;;;6.07;3.78;;;17.80;99.90;;;;;;5039800;28;20668;-75
2022/08/15 03:35:14;;;;;;;5.57;3.78;;;17.80;99.90;;;;;;5041223;28;20677;-75
2022/08/15 03:37:42;;;;;;;5.97;3.63;;;17.80;99.90;;;;;;5043071;28;20277;-75
2022/08/15 03:40:11;;;;;;;5.63;4.07;;;17.80;99.90;;;;;;5042490;28;20509;-75
2022/08/15 03:42:38;;;;;;;7.43;3.97;;;17.70;99.90;;;;;;5041676;28;20257;-76
2022/08/15 03:45:10;;;;;;;5.93;4.30;;;17.70;99.90;;;;;;5036289;28;20667;-76
2022/08/15 03:47:37;;;;;;;7.88;4.07;;;17.70;99.90;;;;;;5060184;28;20326;-76
2022/08/15 03:50:05;;;;;;;5.15;3.80;;;17.70;99.90;;;;;;5042100;28;20228;-77
2022/08/15 03:52:35;;;;;;;6.35;4.40;;;17.70;99.90;;;;;;5038980;28;20227;-77
2022/08/15 03:55:07;;;;;;;3.95;3.38;;;17.70;99.90;;;;;;5057769;28;20226;-76
2022/08/15 03:57:33;;;;;;;5.32;3.90;;;17.70;99.90;;;;;;5045353;28;20250;-76
2022/08/15 04:00:00;;;;;;;5.00;3.53;;;17.70;99.90;;;;;;5041819;28;20227;-75
2022/08/15 04:02:27;;;;;;;5.43;3.95;;;17.70;99.90;;;;;;5025272;28;20734;-75
2022/08/15 04:04:54;;;;;;;6.43;3.92;;;17.70;99.90;;;;;;5037303;28;20211;-76
2022/08/15 04:07:22;;;;;;;5.95;4.00;;;17.70;99.90;;;;;;5055464;28;20247;-75
2022/08/15 04:09:49;;;;;;;4.85;3.78;;;17.70;99.90;;;;;;5040187;28;20251;-76
2022/08/15 04:12:30;;;;;;;4.15;3.75;;;17.70;99.90;;;;;;5062450;28;20222;-76
2022/08/15 04:14:56;;;;;;;6.40;4.18;;;17.70;99.90;;;;;;5037372;28;20545;-75
2022/08/15 04:17:23;;;;;;;7.07;3.93;;;17.70;99.90;;;;;;5060134;28;20223;-75
2022/08/15 04:19:53;;;;;;;5.18;3.88;;;17.70;99.90;;;;;;5043097;28;20219;-75
2022/08/15 04:22:31;;;;;;;5.68;3.70;;;17.70;99.90;;;;;;5041913;28;20827;-75
2022/08/15 04:25:01;;;;;;;6.93;4.15;;;17.60;99.90;;;;;;5037635;28;20777;-76
2022/08/15 04:27:27;;;;;;;5.78;3.75;;;17.70;99.90;;;;;;5044320;28;20834;-76
2022/08/15 04:29:54;;;;;;;4.47;3.65;;;17.60;99.90;;;;;;5049617;28;20231;-76
2022/08/15 04:32:26;;;;;;;5.85;4.35;;;17.70;99.90;;;;;;5040188;28;20223;-76
2022/08/15 04:34:53;;;;;;;10.90;4.68;;;17.60;99.90;;;;;;5060255;28;20227;-76
2022/08/15 04:37:20;;;;;;;7.18;4.38;;;17.60;99.90;;;;;;5034734;28;20672;-74
2022/08/15 04:39:50;;;;;;;6.53;4.45;;;17.70;99.90;;;;;;5034848;28;20220;-75
2022/08/15 04:42:19;;;;;;;5.25;3.65;;;17.60;99.90;;;;;;5044346;28;20848;-76
2022/08/15 04:44:46;;;;;;;6.68;4.20;;;17.60;99.90;;;;;;5059174;28;20230;-77
2022/08/15 04:47:14;;;;;;;7.63;4.43;;;17.70;99.90;;;;;;5042780;28;20254;-75
2022/08/15 04:49:41;;;;;;;5.05;4.05;;;17.70;99.90;;;;;;5056539;28;20305;-75
2022/08/15 04:52:10;;;;;;;5.10;4.43;;;17.70;99.90;;;;;;5056447;28;20316;-77
2022/08/15 04:54:38;;;;;;;6.43;4.80;;;17.70;99.90;;;;;;5052480;28;20285;-76
2022/08/15 04:57:18;;;;;;;5.78;4.32;;;17.70;99.90;;;;;;5041234;28;20226;-76
2022/08/15 04:59:50;;;;;;;8.15;4.32;;;17.80;99.90;;;;;;5043946;28;20231;-76
2022/08/15 05:02:26;;;;;;;5.18;4.50;;;17.80;99.90;;;;;;5040396;28;20220;-76
2022/08/15 05:04:52;;;;;;;7.03;4.45;;;17.80;99.90;;;;;;5039303;28;20379;-76
2022/08/15 05:07:19;;;;;;;7.30;4.18;;;17.90;99.90;;;;;;5052608;28;20711;-76
2022/08/15 05:09:47;;;;;;;5.60;4.57;;;17.90;99.90;;;;;;5043338;28;20228;-75
2022/08/15 05:12:14;;;;;;;6.07;4.10;;;17.90;99.90;;;;;;5042920;28;20227;-76
2022/08/15 05:14:43;;;;;;;6.40;4.15;;;17.90;99.90;;;;;;5056824;28;20227;-75
2022/08/15 05:17:15;;;;;;;5.57;4.53;;;18.00;99.90;;;;;;5052025;28;20377;-75
2022/08/15 05:19:42;;;;;;;5.05;4.07;;;18.00;99.90;;;;;;5040687;28;20821;-75
2022/08/15 05:22:12;;;;;;;6.63;4.18;;;18.10;99.90;;;;;;5038578;28;20242;-75
2022/08/15 05:24:39;;;;;;;6.60;4.65;;;18.10;99.90;;;;;;5037727;28;20714;-75
2022/08/15 05:27:07;;;;;;;5.78;4.00;;;18.10;99.90;;;;;;5040426;28;20223;-75
2022/08/15 05:29:36;;;;;;;6.03;5.00;;;18.20;99.90;;;;;;5059553;28;20219;-75
2022/08/15 05:32:07;;;;;;;5.03;4.38;;;18.20;99.90;;;;;;5047040;28;20231;-75
2022/08/15 05:34:34;;;;;;;6.28;4.38;;;18.30;99.90;;;;;;5037105;28;20227;-75
2022/08/15 05:37:01;;;;;;;7.15;4.45;;;18.40;99.90;;;;;;5039502;28;20231;-75
2022/08/15 05:39:31;;;;;;;7.75;4.70;;;18.40;99.90;;;;;;5041277;28;20577;-75
2022/08/15 05:42:06;;;;;;;5.95;4.82;;;18.50;99.90;;;;;;5040562;28;20219;-75
2022/08/15 05:44:43;;;;;;;8.35;5.45;;;18.50;99.90;;;;;;5049225;28;20216;-74
2022/08/15 05:47:17;;;;;;;7.03;5.15;;;18.60;99.90;;;;;;5053436;28;20634;-75
2022/08/15 05:49:52;;;;;;;6.22;4.95;;;18.60;99.90;;;;;;5055463;28;20234;-75
2022/08/15 05:52:30;;;;;;;6.75;5.10;;;18.70;99.90;;;;;;5056557;28;20219;-75
2022/08/15 05:55:11;;;;;;;7.28;5.03;;;18.80;99.90;;;;;;5039960;28;20219;-75
2022/08/15 05:57:56;;;;;;;6.65;5.15;;;18.80;99.90;;;;;;5057872;28;21061;-75
2022/08/15 06:00:28;;;;;;;6.65;4.80;;;18.90;99.90;;;;;;5037374;28;20228;-75
2022/08/15 06:03:03;;;;;;;5.97;4.78;;;19.00;99.90;;;;;;5039216;28;20231;-75
2022/08/15 06:05:34;;;;;;;7.57;5.53;;;19.00;99.90;;;;;;5036674;28;20235;-75
2022/08/15 06:08:06;;;;;;;7.32;5.70;;;19.10;99.90;;;;;;5053470;28;20244;-76
2022/08/15 06:10:37;;;;;;;10.57;6.03;;;19.20;99.90;;;;;;5063914;28;20241;-75
2022/08/15 06:13:13;;;;;;;7.15;5.20;;;19.30;99.90;;;;;;5046010;28;20311;-75
2022/08/15 06:15:47;;;;;;;6.53;4.97;;;19.30;99.90;;;;;;5038590;28;20310;-76
2022/08/15 06:18:18;;;;;;;6.18;5.10;;;19.40;99.90;;;;;;5042767;28;20234;-74
2022/08/15 06:20:56;;;;;;;6.65;5.47;;;19.50;99.90;;;;;;5047388;28;20729;-76
2022/08/15 06:23:41;;;;;;;10.88;5.80;;;19.60;99.90;;;;;;5041988;28;20317;-76
2022/08/15 06:26:24;;;;;;;5.95;5.40;;;19.70;99.90;;;;;;5043882;28;20595;-76
2022/08/15 06:29:08;;;;;;;9.93;5.88;;;19.70;99.90;;;;;;5038904;28;20254;-79
2022/08/15 06:31:38;;;;;;;7.10;5.47;;;19.80;99.90;;;;;;5043622;28;20306;-77
2022/08/15 06:34:19;;;;;;;6.82;6.03;;;19.90;99.90;;;;;;5045371;28;20716;-76
2022/08/15 06:36:59;;;;;;;6.60;5.28;;;20.00;99.90;;;;;;5041422;28;20250;-77
2022/08/15 06:39:36;;;;;;;7.13;5.55;;;20.10;99.90;;;;;;5060975;28;20242;-76
2022/08/15 06:42:09;;;;;;;7.18;5.32;;;20.20;99.90;;;;;;5040226;28;20767;-78
2022/08/15 06:44:55;;;;;;;7.70;6.15;;;20.30;99.90;;;;;;5053990;28;20216;-78
2022/08/15 06:47:23;;;;;;;6.70;5.93;;;20.40;99.90;;;;;;5042675;28;20258;-78
2022/08/15 06:49:55;;;;;;;7.38;5.97;;;20.50;99.90;;;;;;5045796;28;20223;-78
2022/08/15 06:52:23;;;;;;;7.28;5.78;;;20.60;99.90;;;;;;5041159;28;20308;-77
2022/08/15 06:54:50;;;;;;;6.15;5.53;;;20.70;99.90;;;;;;5038386;28;20219;-77
2022/08/15 06:57:38;;;;;;;7.45;5.75;;;20.80;99.90;;;;;;5056286;28;20229;-78
2022/08/15 07:00:10;;;;;;;10.23;6.15;;;20.90;99.90;;;;;;5036896;28;20637;-77
2022/08/15 07:03:06;;;;;;;7.45;6.00;;;21.00;99.90;;;;;;5052179;28;20218;-82
2022/08/15 07:05:43;;;;;;;8.13;5.93;;;21.10;99.90;;;;;;5057169;28;20603;-82
2022/08/15 07:08:19;;;;;;;6.75;6.05;;;21.20;99.90;;;;;;5051004;28;20224;-82
2022/08/15 07:10:51;;;;;;;7.97;6.07;;;21.30;99.90;;;;;;5045434;28;20314;-82
2022/08/15 07:13:38;;;;;;;8.63;5.88;;;21.40;99.90;;;;;;5042662;28;20215;-82
2022/08/15 07:16:13;;;;;;;9.15;6.28;;;21.50;99.90;;;;;;5058504;28;20236;-83
2022/08/15 07:18:44;;;;;;;6.45;5.85;;;21.70;99.90;;;;;;5040565;28;20856;-82
2022/08/15 07:21:25;;;;;;;6.32;5.50;;;21.90;99.90;;;;;;5037628;28;20504;-83
2022/08/15 07:24:08;;;;;;;6.90;5.95;;;22.20;99.90;;;;;;5059539;28;20216;-83
2022/08/15 07:26:45;;;;;;;8.80;6.45;;;22.60;99.90;;;;;;5041469;28;20227;-82
2022/08/15 07:29:24;;;;;;;7.95;5.90;;;23.00;99.90;;;;;;5042892;28;20222;-82
2022/08/15 07:31:58;;;;;;;6.75;5.60;;;23.50;99.90;;;;;;5041633;28;20223;-82
2022/08/15 07:34:26;;;;;;;6.32;5.72;;;24.10;99.90;;;;;;5032757;28;20219;-83
2022/08/15 07:37:17;;;;;;;6.85;5.43;;;24.70;99.90;;;;;;5037031;28;20223;-83
2022/08/15 07:39:44;;;;;;;7.72;5.68;;;25.50;98.50;;;;;;5042252;28;20985;-82
2022/08/15 07:42:20;;;;;;;6.97;5.60;;;26.50;98.20;;;;;;5039730;28;20285;-82
2022/08/15 07:44:52;;;;;;;5.95;5.38;;;27.30;96.70;;;;;;5059183;28;20262;-82
2022/08/15 07:47:27;;;;;;;6.85;5.38;;;28.20;95.60;;;;;;5041566;28;20230;-82
2022/08/15 07:50:03;;;;;;;7.43;5.68;;;29.00;93.70;;;;;;5027863;28;21208;-83
2022/08/15 07:52:32;;;;;;;6.40;5.47;;;29.80;92.60;;;;;;5042084;28;20219;-84
2022/08/15 07:55:14;;;;;;;6.25;5.60;;;30.50;91.50;;;;;;5041035;28;20246;-83
2022/08/15 07:57:41;;;;;;;7.07;5.90;;;31.10;89.50;;;;;;5056654;28;20303;-83
2022/08/15 08:00:17;;;;;;;9.40;5.43;;;31.70;89.10;;;;;;5038014;28;20257;-81
2022/08/15 08:02:58;;;;;;;6.30;5.80;;;32.20;85.60;;;;;;5041040;28;20219;-83
2022/08/15 08:05:29;;;;;;;6.60;5.45;;;32.80;84.00;;;;;;5039424;28;20263;-83
2022/08/15 08:08:02;;;;;;;5.80;5.20;;;33.30;81.70;;;;;;5032785;28;20937;-83
2022/08/15 08:10:34;;;;;;;6.95;5.72;;;33.80;79.70;;;;;;5037049;28;20330;-83
2022/08/15 08:13:18;;;;;;;6.78;5.45;;;34.30;78.00;;;;;;5051466;28;20309;-82
2022/08/15 08:15:52;;;;;;;7.63;5.80;;;34.70;75.50;;;;;;5037490;28;20250;-83
2022/08/15 08:18:28;;;;;;;7.28;6.22;;;35.10;74.50;;;;;;5034796;28;20311;-82
2022/08/15 08:21:01;;;;;;;7.15;5.97;;;35.50;72.30;;;;;;5048332;28;20234;-85
2022/08/15 08:23:33;;;;;;;7.53;5.90;;;35.90;70.50;;;;;;5032349;28;20759;-84
2022/08/15 08:26:07;;;;;;;7.93;6.00;;;36.20;68.80;;;;;;5035971;28;20256;-84
2022/08/15 08:28:42;;;;;;;6.63;5.93;;;36.60;66.70;;;;;;5054743;28;20788;-84
2022/08/15 08:31:21;;;;;;;7.43;6.00;;;36.90;64.30;;;;;;5026727;28;20723;-84
2022/08/15 08:34:01;;;;;;;7.45;5.65;;;37.00;63.50;;;;;;5053301;28;20243;-84
2022/08/15 08:36:32;;;;;;;6.63;6.03;;;37.20;63.20;;;;;;5035552;28;20231;-84
2022/08/15 08:39:14;;;;;;;6.32;5.80;;;37.20;61.60;;;;;;5036103;28;20754;-84
2022/08/15 08:41:49;;;;;;;7.55;6.20;;;37.30;60.70;;;;;;5033222;28;20228;-84
2022/08/15 08:44:24;;;;;;;9.85;6.03;;;37.20;58.00;;;;;;5058328;28;20650;-84
2022/08/15 08:47:24;;;;;;;6.57;5.78;;;37.10;58.40;;;;;;5038638;28;20223;-84
2022/08/15 08:50:00;;;;;;;6.78;6.07;;;36.90;58.20;;;;;;5028281;28;21104;-83
2022/08/15 08:52:40;;;;;;;7.40;6.60;;;36.70;58.20;;;;;;5057035;28;20314;-80
2022/08/15 08:55:16;;;;;;;6.70;6.15;;;36.40;58.90;;;;;;5033951;28;20227;-80
2022/08/15 08:57:49;;;;;;;7.00;6.40;;;36.40;59.30;;;;;;5059580;28;20211;-80
2022/08/15 09:00:18;;;;;;;7.22;6.07;;;36.40;59.50;;;;;;5058425;28;20255;-80
2022/08/15 09:02:48;;;;;;;6.60;5.95;;;36.50;59.60;;;;;;5054371;28;20831;-80
2022/08/15 09:05:26;;;;;;;7.88;6.40;;;36.80;59.30;;;;;;5023473;28;20311;-82
2022/08/15 09:07:58;;;;;;;6.80;6.07;;;37.00;59.00;;;;;;5057694;28;20318;-83
2022/08/15 09:10:32;;;;;;;7.30;5.95;;;37.30;58.50;;;;;;5056633;28;20239;-82
2022/08/15 09:15:49;;;;;;;7.85;5.93;;;37.60;56.50;;;;;;5060730;28;20231;-82
2022/08/15 09:18:21;;;;;;;7.78;6.10;;;37.70;56.70;;;;;;5057089;28;20225;-81
2022/08/15 09:20:48;;;;;;;6.60;6.03;;;37.70;56.50;;;;;;5061354;28;20239;-83
2022/08/15 09:23:17;;;;;;;7.65;6.40;;;37.90;56.80;;;;;;5037667;28;20219;-82
2022/08/15 09:25:52;;;;;;;6.90;6.30;;;38.10;55.70;;;;;;5059495;28;20215;-81
2022/08/15 09:28:25;;;;;;;6.80;6.10;;;38.20;53.40;;;;;;5058379;28;20227;-82
2022/08/15 09:30:53;;;;;;;6.60;6.00;;;38.20;52.80;;;;;;5059791;28;20234;-81
2022/08/15 09:33:45;;;;;;;6.68;5.90;;;38.00;53.60;;;;;;5040182;28;20219;-80
2022/08/15 09:36:27;;;;;;;7.80;6.25;;;37.90;53.60;;;;;;5056444;28;20219;-82
2022/08/15 09:39:03;;;;;;;6.47;5.82;;;37.70;52.60;;;;;;5058238;28;20223;-81
2022/08/15 09:41:46;;;;;;;7.28;6.50;;;37.60;53.00;;;;;;5050525;28;20227;-81
2022/08/15 09:44:29;;;;;;;7.40;5.95;;;37.60;52.30;;;;;;5055128;28;20245;-81
2022/08/15 09:47:37;;;;;;;7.10;6.30;;;37.60;53.20;;;;;;5060128;28;20227;-81
2022/08/15 09:50:21;;;;;;;6.80;5.93;;;37.60;53.00;;;;;;5060154;28;20637;-82
2022/08/15 09:53:00;;;;;;;7.32;6.40;;;37.70;53.40;;;;;;5049182;28;20276;-81
2022/08/15 09:55:34;;;;;;;6.60;5.82;;;37.90;53.00;;;;;;5055294;28;20253;-81
2022/08/15 09:58:14;;;;;;;7.15;6.45;;;38.10;53.10;;;;;;5056843;28;20724;-81
2022/08/15 10:00:52;;;;;;;7.68;6.10;;;38.50;52.70;;;;;;5040425;28;20486;-81
2022/08/15 10:03:23;;;;;;;5.93;5.30;;;38.90;52.40;;;;;;5059913;28;20227;-81
2022/08/15 10:06:03;;;;;;;6.75;6.10;;;39.20;51.90;;;;;;5058796;28;20442;-81
2022/08/15 10:09:04;;;;;;;6.70;5.72;;;39.50;49.80;;;;;;5039635;28;20759;-81
2022/08/15 10:11:33;;;;;;;6.53;5.90;;;39.70;50.30;;;;;;5062332;28;20285;-81
2022/08/15 10:14:05;;;;;;;7.43;6.60;;;39.80;49.70;;;;;;5058215;28;20234;-82
2022/08/15 10:16:48;;;;;;;6.95;6.10;;;39.80;49.50;;;;;;5040918;28;20231;-81
2022/08/15 10:19:32;;;;;;;6.70;5.88;;;39.80;48.30;;;;;;5040741;28;20833;-81
2022/08/15 10:22:01;;;;;;;6.82;6.22;;;39.70;48.80;;;;;;5060044;28;20231;-81
2022/08/15 10:24:33;;;;;;;7.45;6.75;;;39.50;47.90;;;;;;5047691;28;20859;-81
2022/08/15 10:27:23;;;;;;;6.68;5.75;;;39.20;48.40;;;;;;5060754;28;20227;-81
2022/08/15 10:30:10;;;;;;;6.85;6.10;;;38.90;49.50;;;;;;5042294;28;20219;-81
2022/08/15 10:32:44;;;;;;;7.38;6.30;;;38.80;49.10;;;;;;5041544;28;20224;-81
2022/08/15 10:35:18;;;;;;;10.38;6.95;;;38.80;49.40;;;;;;5057626;28;20274;-81
2022/08/15 10:37:53;;;;;;;7.22;6.53;;;38.90;48.90;;;;;;5062015;28;20214;-81
2022/08/15 10:40:48;;;;;;;9.40;6.40;;;39.10;50.00;;;;;;5050699;28;20318;-81
2022/08/15 10:43:40;;;;;;;8.10;6.28;;;39.10;49.20;;;;;;5058115;28;20219;-81
2022/08/15 10:46:21;;;;;;;7.80;6.55;;;39.20;48.40;;;;;;5059940;28;20226;-81
2022/08/15 10:49:03;;;;;;;6.45;5.82;;;39.20;48.10;;;;;;5048289;28;20307;-81
2022/08/15 10:51:44;;;;;;;9.35;6.55;;;39.30;48.60;;;;;;5058843;28;20288;-81
2022/08/15 10:54:24;;;;;;;7.75;6.47;;;39.40;48.50;;;;;;5057349;28;20230;-81
2022/08/15 10:56:55;;;;;;;10.38;6.70;;;39.40;47.80;;;;;;5053788;28;20306;-81
2022/08/15 10:59:26;;;;;;;7.78;6.82;;;39.50;48.00;;;;;;5044192;28;20715;-81
2022/08/15 11:02:07;;;;;;;6.72;6.00;;;39.50;47.60;;;;;;5064635;28;20308;-81
2022/08/15 11:04:36;;;;;;;7.38;6.10;;;39.50;47.50;;;;;;5061668;28;20332;-81
2022/08/15 11:07:18;;;;;;;7.20;6.00;;;39.50;47.30;;;;;;5062349;28;20636;-81
2022/08/15 11:09:54;;;;;;;14.80;6.07;;;39.50;47.80;;;;;;5052459;28;20607;-81
2022/08/15 11:12:26;;;;;;;9.30;6.53;;;39.70;48.00;;;;;;5038135;28;20227;-81
2022/08/15 11:14:56;;;;;;;7.20;6.50;;;39.80;47.30;;;;;;5039677;28;20231;-81
2022/08/15 11:17:28;;;;;;;7.55;6.80;;;39.80;47.40;;;;;;5059248;28;20239;-81
2022/08/15 11:20:03;;;;;;;6.88;6.18;;;39.80;47.10;;;;;;5056908;28;20251;-81
2022/08/15 11:22:37;;;;;;;6.63;6.03;;;39.80;47.00;;;;;;5059727;28;20763;-80
2022/08/15 11:25:11;;;;;;;7.38;6.38;;;39.90;47.00;;;;;;5058884;28;20239;-82
2022/08/15 11:27:38;;;;;;;7.53;6.10;;;39.90;46.90;;;;;;5051203;28;20222;-82
2022/08/15 11:30:08;;;;;;;6.15;5.55;;;39.90;46.90;;;;;;5039399;28;20836;-82
2022/08/15 11:32:38;;;;;;;11.30;5.55;;;40.00;46.70;;;;;;5064378;28;20236;-82
2022/08/15 11:35:21;;;;;;;6.95;5.55;;;40.10;46.00;;;;;;5041241;28;20692;-82
2022/08/15 11:37:48;;;;;;;6.38;5.30;;;40.20;45.30;;;;;;5049927;28;20290;-83
2022/08/15 11:40:26;;;;;;;6.20;5.63;;;40.30;44.90;;;;;;5032486;28;20259;-82
2022/08/15 11:42:54;;;;;;;8.43;5.95;;;40.30;43.80;;;;;;5053935;28;20734;-82
2022/08/15 11:45:26;;;;;;;6.72;6.03;;;40.30;44.90;;;;;;5054116;28;20215;-82
2022/08/15 11:47:56;;;;;;;6.43;5.82;;;40.30;44.60;;;;;;5039565;28;20227;-83
2022/08/15 11:50:27;;;;;;;6.82;6.22;;;40.40;44.60;;;;;;5052384;28;20801;-83
2022/08/15 11:52:57;;;;;;;6.57;5.78;;;40.40;44.10;;;;;;5028086;28;20223;-82
2022/08/15 11:55:43;;;;;;;6.55;5.90;;;40.30;44.70;;;;;;5041123;28;20238;-82
2022/08/15 11:58:28;;;;;;;6.18;5.57;;;40.40;44.90;;;;;;5051300;28;20246;-82
2022/08/15 12:00:57;;;;;;;7.95;6.03;;;40.40;44.20;;;;;;5044319;28;20234;-82
2022/08/15 12:03:27;;;;;;;6.43;5.82;;;40.40;44.00;;;;;;5042992;28;20227;-83
2022/08/15 12:05:59;;;;;;;7.15;6.28;;;40.30;43.70;;;;;;5045987;28;20755;-82
2022/08/15 12:08:31;;;;;;;6.75;6.15;;;40.20;43.70;;;;;;5055753;28;20242;-82
2022/08/15 12:11:07;;;;;;;6.38;5.88;;;40.20;43.70;;;;;;5061015;28;20317;-82
2022/08/15 12:13:34;;;;;;;7.25;6.28;;;40.20;43.80;;;;;;5041829;28;20688;-82
2022/08/15 12:16:01;;;;;;;8.85;6.43;;;40.20;44.10;;;;;;5054811;28;20224;-82
2022/08/15 12:18:36;;;;;;;6.30;5.70;;;40.20;43.90;;;;;;5060695;28;20231;-83
2022/08/15 12:21:10;;;;;;;6.15;5.55;;;40.20;43.40;;;;;;5057536;28;20226;-82
2022/08/15 12:23:47;;;;;;;8.77;5.85;;;40.40;44.10;;;;;;5039272;28;20222;-82
2022/08/15 12:26:16;;;;;;;7.70;5.90;;;40.30;43.10;;;;;;5051282;28;20228;-82
2022/08/15 12:28:44;;;;;;;11.65;6.50;;;40.30;44.10;;;;;;5059166;28;20223;-82
2022/08/15 12:31:20;;;;;;;5.95;5.35;;;40.10;43.70;;;;;;5054706;28;20231;-82
2022/08/15 12:33:59;;;;;;;6.20;5.60;;;39.90;44.20;;;;;;5058900;28;20544;-82
2022/08/15 12:36:26;;;;;;;6.68;6.07;;;39.70;44.00;;;;;;5036190;28;20272;-82
2022/08/15 12:38:53;;;;;;;6.38;5.85;;;39.50;43.90;;;;;;5054680;28;20211;-82
2022/08/15 12:41:20;;;;;;;7.38;5.97;;;39.40;44.30;;;;;;5058132;28;20230;-82
2022/08/15 12:43:47;;;;;;;7.20;6.07;;;39.20;44.50;;;;;;5057904;28;20231;-82
2022/08/15 12:46:13;;;;;;;6.82;6.22;;;39.10;44.20;;;;;;5057387;28;20250;-82
2022/08/15 12:48:40;;;;;;;7.28;6.65;;;39.00;43.90;;;;;;5054274;28;20254;-83
2022/08/15 12:51:09;;;;;;;6.63;5.75;;;38.80;44.00;;;;;;5054593;28;20226;-83
2022/08/15 12:53:38;;;;;;;6.25;5.75;;;38.60;44.40;;;;;;5052087;28;20231;-83
2022/08/15 12:56:07;;;;;;;7.32;6.63;;;38.40;44.60;;;;;;5052466;28;20601;-83
2022/08/15 12:58:35;;;;;;;7.13;6.40;;;38.20;45.00;;;;;;5056794;28;20219;-83
2022/08/15 13:01:01;;;;;;;7.35;6.63;;;38.10;46.10;;;;;;5038256;28;20250;-83
2022/08/15 13:03:30;;;;;;;7.35;6.65;;;38.10;46.70;;;;;;5051981;28;20235;-83
2022/08/15 13:06:02;;;;;;;8.57;6.63;;;38.00;47.20;;;;;;5056879;28;20313;-83
2022/08/15 13:08:31;;;;;;;6.75;6.25;;;38.20;47.60;;;;;;5052252;28;20231;-82
2022/08/15 13:10:57;;;;;;;6.63;6.03;;;38.30;47.00;;;;;;5055193;28;20242;-83
2022/08/15 13:13:24;;;;;;;6.07;5.50;;;38.40;46.90;;;;;;5054662;28;20708;-84
2022/08/15 13:15:51;;;;;;;5.97;5.47;;;38.60;46.20;;;;;;5037084;28;20226;-82
2022/08/15 13:18:23;;;;;;;6.32;5.63;;;38.60;45.80;;;;;;5036129;28;20838;-84